Time;durP1;ratioP1;P1;durP2;ratioP2;P2;SDS_P1;SDS_P2;PMS_P1;PMS_P2;Temp;Humidity;BMP_temperature;BMP_pressure;BME280_temperature;BME280_humidity;BME280_pressure;Samples;Min_cycle;Max_cycle;Signal;HPM_P1;HPM_P2
2023/08/31 00:00:51;;;;;;;10.85;10.35;;;;;;;;;;5080832;28;20036;-64
2023/08/31 00:03:16;;;;;;;11.15;10.65;;;;;;;;;;5079588;28;20509;-64
2023/08/31 00:05:42;;;;;;;11.00;10.50;;;;;;;;;;5081803;28;20097;-64
2023/08/31 00:08:08;;;;;;;11.10;10.60;;;;;;;;;;5081361;28;20170;-63
2023/08/31 00:10:34;;;;;;;11.77;11.27;;;;;;;;;;5086033;28;20020;-63
2023/08/31 00:13:00;;;;;;;11.38;10.88;;;;;;;;;;5084301;28;20422;-64
2023/08/31 00:15:25;;;;;;;11.30;10.80;;;;;;;;;;5080660;28;20016;-63
2023/08/31 00:17:51;;;;;;;11.25;10.75;;;;;;;;;;5080799;28;20060;-64
2023/08/31 00:20:17;;;;;;;10.93;10.43;;;;;;;;;;5083779;28;20024;-62
2023/08/31 00:22:42;;;;;;;11.13;10.63;;;;;;;;;;5085601;28;20145;-64
2023/08/31 00:25:08;;;;;;;11.23;10.73;;;;;;;;;;5080448;28;20035;-64
2023/08/31 00:27:34;;;;;;;11.45;10.95;;;;;;;;;;5084137;28;20055;-64
2023/08/31 00:29:59;;;;;;;12.25;11.65;;;;;;;;;;5082568;28;20095;-64
2023/08/31 00:32:24;;;;;;;11.55;11.05;;;;;;;;;;5079428;28;20047;-63
2023/08/31 00:34:50;;;;;;;11.98;11.45;;;;;;;;;;5082870;28;20099;-63
2023/08/31 00:37:16;;;;;;;11.57;11.07;;;;;;;;;;5084186;28;20020;-63
2023/08/31 00:39:41;;;;;;;11.10;10.60;;;;;;;;;;5075534;28;20073;-64
2023/08/31 00:42:07;;;;;;;11.45;10.95;;;;;;;;;;5082720;28;20036;-63
2023/08/31 00:44:32;;;;;;;11.40;10.90;;;;;;;;;;5080555;28;20034;-64
2023/08/31 00:46:58;;;;;;;11.50;11.00;;;;;;;;;;5077782;28;20580;-63
2023/08/31 00:49:23;;;;;;;11.00;10.50;;;;;;;;;;5080735;28;20023;-63
2023/08/31 00:51:50;;;;;;;11.13;10.63;;;;;;;;;;5078443;28;20475;-64
2023/08/31 00:54:19;;;;;;;11.23;10.73;;;;;;;;;;5080706;28;20024;-63
2023/08/31 00:56:44;;;;;;;11.15;10.65;;;;;;;;;;5083810;28;20016;-63
2023/08/31 00:59:10;;;;;;;10.95;10.45;;;;;;;;;;5081864;28;20032;-63
2023/08/31 01:01:35;;;;;;;11.40;10.90;;;;;;;;;;5083385;28;20024;-64
2023/08/31 01:04:13;;;;;;;11.48;10.98;;;;;;;;;;5087091;28;20518;-63
2023/08/31 01:06:49;;;;;;;11.15;10.65;;;;;;;;;;5080786;28;20134;-63
2023/08/31 01:09:14;;;;;;;11.20;10.70;;;;;;;;;;5079054;28;20089;-64
2023/08/31 01:11:39;;;;;;;11.52;11.02;;;;;;;;;;5082504;28;20024;-64
2023/08/31 01:14:11;;;;;;;11.27;10.77;;;;;;;;;;5082297;28;20031;-64
2023/08/31 01:16:38;;;;;;;11.20;10.70;;;;;;;;;;5077703;28;20051;-64
2023/08/31 01:19:05;;;;;;;11.00;10.50;;;;;;;;;;5079466;28;20085;-65
2023/08/31 01:21:35;;;;;;;11.02;10.52;;;;;;;;;;5086128;28;20036;-65
2023/08/31 01:24:01;;;;;;;11.38;10.88;;;;;;;;;;5082596;28;20023;-64
2023/08/31 01:26:27;;;;;;;10.90;10.40;;;;;;;;;;5080958;28;20024;-63
2023/08/31 01:28:55;;;;;;;11.73;11.23;;;;;;;;;;5077059;28;20024;-63
2023/08/31 01:31:20;;;;;;;11.32;10.82;;;;;;;;;;5077400;28;20017;-64
2023/08/31 01:33:46;;;;;;;11.43;10.93;;;;;;;;;;5078664;28;20077;-63
2023/08/31 01:36:21;;;;;;;10.95;10.45;;;;;;;;;;5079168;28;20020;-64
2023/08/31 01:38:49;;;;;;;11.70;11.20;;;;;;;;;;5080211;28;20024;-62
2023/08/31 01:41:17;;;;;;;11.10;10.60;;;;;;;;;;5078644;28;20033;-64
2023/08/31 01:43:43;;;;;;;10.95;10.45;;;;;;;;;;5080006;28;20021;-63
2023/08/31 01:46:09;;;;;;;11.23;10.73;;;;;;;;;;5081614;28;20057;-63
2023/08/31 01:48:38;;;;;;;11.20;10.70;;;;;;;;;;5081961;28;20487;-63
2023/08/31 01:51:05;;;;;;;11.05;10.55;;;;;;;;;;5082209;28;20024;-64
2023/08/31 01:53:30;;;;;;;10.68;10.18;;;;;;;;;;5083078;28;20024;-64
2023/08/31 01:55:56;;;;;;;11.13;10.63;;;;;;;;;;5076409;28;20020;-64
2023/08/31 01:58:22;;;;;;;10.95;10.45;;;;;;;;;;5103855;28;20052;-63
2023/08/31 02:00:48;;;;;;;10.82;10.32;;;;;;;;;;5089678;28;20386;-64
2023/08/31 02:03:13;;;;;;;11.10;10.60;;;;;;;;;;5084025;28;20055;-63
2023/08/31 02:05:38;;;;;;;11.27;10.77;;;;;;;;;;5077840;28;20472;-63
2023/08/31 02:08:03;;;;;;;11.80;11.30;;;;;;;;;;5087937;28;20035;-63
2023/08/31 02:10:29;;;;;;;11.43;10.93;;;;;;;;;;5082851;28;20016;-63
2023/08/31 02:12:54;;;;;;;11.13;10.63;;;;;;;;;;5084677;28;20020;-64
2023/08/31 02:15:20;;;;;;;11.32;10.82;;;;;;;;;;5081297;28;20016;-64
2023/08/31 02:17:45;;;;;;;11.10;10.60;;;;;;;;;;5082236;28;20590;-64
2023/08/31 02:20:11;;;;;;;11.20;10.70;;;;;;;;;;5081452;28;20032;-64
2023/08/31 02:22:36;;;;;;;11.25;10.75;;;;;;;;;;5083584;28;20025;-64
2023/08/31 02:25:02;;;;;;;11.20;10.70;;;;;;;;;;5081593;28;20035;-64
2023/08/31 02:27:27;;;;;;;11.60;11.10;;;;;;;;;;5081855;28;20036;-63
2023/08/31 02:29:53;;;;;;;11.10;10.60;;;;;;;;;;5083012;28;20484;-64
2023/08/31 02:32:18;;;;;;;11.50;11.00;;;;;;;;;;5087334;28;20103;-63
2023/08/31 02:34:44;;;;;;;11.32;10.82;;;;;;;;;;5079688;28;20108;-64
2023/08/31 02:37:09;;;;;;;11.50;11.00;;;;;;;;;;5083755;28;20089;-63
2023/08/31 02:39:34;;;;;;;11.30;10.80;;;;;;;;;;5086358;28;20024;-63
2023/08/31 02:42:00;;;;;;;11.38;10.88;;;;;;;;;;5083207;28;20025;-62
2023/08/31 02:44:26;;;;;;;11.57;11.07;;;;;;;;;;5084345;28;20052;-63
2023/08/31 02:46:52;;;;;;;11.13;10.63;;;;;;;;;;5080577;28;20031;-63
2023/08/31 02:49:17;;;;;;;11.52;11.02;;;;;;;;;;5086523;28;20020;-64
2023/08/31 02:51:43;;;;;;;11.40;10.90;;;;;;;;;;5083352;28;20031;-64
2023/08/31 02:54:08;;;;;;;11.40;10.90;;;;;;;;;;5083674;28;20043;-64
2023/08/31 02:56:33;;;;;;;11.20;10.70;;;;;;;;;;5087236;28;20020;-64
2023/08/31 02:58:58;;;;;;;11.00;10.50;;;;;;;;;;5084539;28;20160;-64
2023/08/31 03:01:24;;;;;;;11.55;11.05;;;;;;;;;;5085600;28;20074;-64
2023/08/31 03:03:49;;;;;;;11.60;11.10;;;;;;;;;;5082529;28;20040;-65
2023/08/31 03:06:15;;;;;;;12.07;11.50;;;;;;;;;;5081626;28;20714;-64
2023/08/31 03:08:40;;;;;;;11.07;10.57;;;;;;;;;;5084208;28;20111;-65
2023/08/31 03:11:05;;;;;;;11.20;10.70;;;;;;;;;;5088968;28;20476;-64
2023/08/31 03:13:31;;;;;;;11.13;10.63;;;;;;;;;;5084410;28;20094;-64
2023/08/31 03:15:57;;;;;;;11.07;10.57;;;;;;;;;;5086987;28;20118;-63
2023/08/31 03:18:22;;;;;;;11.15;10.65;;;;;;;;;;5077254;28;20061;-64
2023/08/31 03:20:47;;;;;;;11.20;10.70;;;;;;;;;;5080089;28;20024;-64
2023/08/31 03:23:13;;;;;;;11.48;10.98;;;;;;;;;;5084922;28;20013;-64
2023/08/31 03:25:38;;;;;;;11.45;10.95;;;;;;;;;;5088170;28;20068;-64
2023/08/31 03:28:03;;;;;;;11.43;10.93;;;;;;;;;;5078481;28;20420;-64
2023/08/31 03:30:29;;;;;;;11.45;10.95;;;;;;;;;;5085087;28;20097;-64
2023/08/31 03:32:54;;;;;;;11.30;10.80;;;;;;;;;;5081255;28;20016;-63
2023/08/31 03:35:21;;;;;;;11.07;10.57;;;;;;;;;;5086948;28;20027;-64
2023/08/31 03:37:49;;;;;;;11.38;10.88;;;;;;;;;;5085020;28;20043;-64
2023/08/31 03:40:14;;;;;;;11.13;10.63;;;;;;;;;;5082460;28;20103;-65
2023/08/31 03:42:39;;;;;;;11.02;10.52;;;;;;;;;;5082202;28;20564;-65
2023/08/31 03:45:05;;;;;;;11.30;10.80;;;;;;;;;;5088047;28;20437;-65
2023/08/31 03:47:30;;;;;;;11.20;10.70;;;;;;;;;;5083114;28;20382;-64
2023/08/31 03:49:56;;;;;;;11.20;10.70;;;;;;;;;;5076799;28;20077;-63
2023/08/31 03:52:21;;;;;;;11.48;10.98;;;;;;;;;;5080773;28;20024;-64
2023/08/31 03:54:46;;;;;;;10.98;10.48;;;;;;;;;;5085602;28;20032;-64
2023/08/31 03:57:11;;;;;;;11.30;10.80;;;;;;;;;;5076288;28;20483;-64
2023/08/31 03:59:37;;;;;;;11.55;11.05;;;;;;;;;;5082777;28;20458;-63
2023/08/31 04:02:02;;;;;;;11.55;11.05;;;;;;;;;;5079993;28;20024;-63
2023/08/31 04:04:27;;;;;;;12.20;11.60;;;;;;;;;;5073908;28;20047;-65
2023/08/31 04:06:53;;;;;;;11.60;11.10;;;;;;;;;;5079983;28;20034;-65
2023/08/31 04:09:19;;;;;;;11.55;11.05;;;;;;;;;;5081332;28;20040;-64
2023/08/31 04:11:44;;;;;;;11.00;10.50;;;;;;;;;;5083851;28;20023;-64
2023/08/31 04:14:09;;;;;;;11.30;10.80;;;;;;;;;;5082784;28;20069;-65
2023/08/31 04:16:35;;;;;;;11.50;11.00;;;;;;;;;;5079437;28;20027;-65
2023/08/31 04:19:00;;;;;;;10.83;10.33;;;;;;;;;;5083836;28;20087;-63
2023/08/31 04:21:25;;;;;;;11.48;10.98;;;;;;;;;;5077581;28;20321;-65
2023/08/31 04:23:51;;;;;;;11.27;10.77;;;;;;;;;;5081885;28;20059;-64
2023/08/31 04:26:17;;;;;;;11.50;11.00;;;;;;;;;;5079087;28;20020;-63
2023/08/31 04:28:43;;;;;;;11.70;11.20;;;;;;;;;;5082426;28;20685;-64
2023/08/31 04:31:09;;;;;;;12.10;11.60;;;;;;;;;;5082041;28;20058;-64
2023/08/31 04:33:34;;;;;;;11.40;10.90;;;;;;;;;;5083137;28;20016;-64
2023/08/31 04:35:59;;;;;;;11.75;11.25;;;;;;;;;;5081108;28;20036;-64
2023/08/31 04:38:25;;;;;;;11.80;11.30;;;;;;;;;;5078464;28;20020;-64
2023/08/31 04:40:50;;;;;;;11.95;11.45;;;;;;;;;;5083462;28;20428;-64
2023/08/31 04:43:15;;;;;;;11.75;11.25;;;;;;;;;;5083303;28;20020;-64
2023/08/31 04:45:40;;;;;;;11.67;11.17;;;;;;;;;;5078959;28;20024;-64
2023/08/31 04:48:06;;;;;;;12.00;11.50;;;;;;;;;;5082577;28;20644;-64
2023/08/31 04:50:31;;;;;;;11.68;11.18;;;;;;;;;;5079492;28;20280;-64
2023/08/31 04:52:58;;;;;;;11.90;11.40;;;;;;;;;;5081180;28;20024;-64
2023/08/31 04:55:23;;;;;;;11.93;11.43;;;;;;;;;;5078851;28;20048;-64
2023/08/31 04:57:49;;;;;;;11.70;11.20;;;;;;;;;;5078076;28;20059;-64
2023/08/31 05:00:15;;;;;;;12.05;11.55;;;;;;;;;;5081443;28;20609;-64
2023/08/31 05:02:40;;;;;;;12.07;11.57;;;;;;;;;;5081292;28;20123;-64
2023/08/31 05:05:06;;;;;;;11.82;11.32;;;;;;;;;;5085419;28;20076;-64
2023/08/31 05:07:31;;;;;;;12.00;11.50;;;;;;;;;;5078912;28;20403;-64
2023/08/31 05:09:56;;;;;;;12.17;11.67;;;;;;;;;;5078556;28;20031;-67
2023/08/31 05:12:22;;;;;;;12.25;11.75;;;;;;;;;;5077006;28;20276;-66
2023/08/31 05:14:47;;;;;;;12.27;11.77;;;;;;;;;;5078446;28;20028;-67
2023/08/31 05:17:12;;;;;;;12.20;11.70;;;;;;;;;;5083643;28;20020;-67
2023/08/31 05:19:38;;;;;;;12.20;11.70;;;;;;;;;;5083902;28;20471;-66
2023/08/31 05:22:03;;;;;;;12.17;11.67;;;;;;;;;;5092179;28;20265;-66
2023/08/31 05:24:28;;;;;;;12.20;11.70;;;;;;;;;;5079309;28;20263;-66
2023/08/31 05:26:54;;;;;;;12.27;11.77;;;;;;;;;;5080801;28;20380;-66
2023/08/31 05:29:19;;;;;;;12.00;11.50;;;;;;;;;;5082834;28;20016;-66
2023/08/31 05:31:44;;;;;;;11.90;11.40;;;;;;;;;;5079109;28;20028;-67
2023/08/31 05:34:10;;;;;;;11.93;11.43;;;;;;;;;;5075100;28;20052;-65
2023/08/31 05:36:35;;;;;;;11.95;11.45;;;;;;;;;;5084790;28;20103;-65
2023/08/31 05:39:01;;;;;;;12.07;11.57;;;;;;;;;;5082344;28;20012;-65
2023/08/31 05:41:27;;;;;;;12.00;11.50;;;;;;;;;;5083819;28;20035;-65
2023/08/31 05:43:52;;;;;;;11.98;11.48;;;;;;;;;;5084567;28;20016;-64
2023/08/31 05:46:18;;;;;;;11.73;11.23;;;;;;;;;;5081142;28;20020;-65
2023/08/31 05:48:43;;;;;;;12.07;11.57;;;;;;;;;;5080589;28;20036;-66
2023/08/31 05:51:08;;;;;;;11.90;11.40;;;;;;;;;;5079618;28;20048;-66
2023/08/31 05:53:34;;;;;;;11.88;11.38;;;;;;;;;;5080516;28;20300;-65
2023/08/31 05:56:06;;;;;;;11.95;11.45;;;;;;;;;;5079088;28;20028;-65
2023/08/31 05:58:35;;;;;;;11.90;11.40;;;;;;;;;;5080958;28;20023;-65
2023/08/31 06:01:02;;;;;;;12.07;11.57;;;;;;;;;;5081789;28;20028;-66
2023/08/31 06:03:27;;;;;;;12.10;11.60;;;;;;;;;;5081625;28;20495;-65
2023/08/31 06:05:53;;;;;;;12.15;11.65;;;;;;;;;;5079435;28;20029;-66
2023/08/31 06:08:18;;;;;;;12.00;11.50;;;;;;;;;;5083346;28;20028;-65
2023/08/31 06:10:43;;;;;;;12.25;11.75;;;;;;;;;;5087139;28;20085;-66
2023/08/31 06:13:09;;;;;;;12.13;11.63;;;;;;;;;;5083680;28;20024;-65
2023/08/31 06:15:34;;;;;;;12.10;11.60;;;;;;;;;;5083004;28;20480;-66
2023/08/31 06:17:59;;;;;;;11.60;11.10;;;;;;;;;;5082770;28;20298;-66
2023/08/31 06:20:25;;;;;;;11.95;11.45;;;;;;;;;;5085790;28;20046;-65
2023/08/31 06:22:50;;;;;;;12.00;11.50;;;;;;;;;;5081377;28;20035;-67
2023/08/31 06:25:18;;;;;;;12.10;11.60;;;;;;;;;;5084619;28;20207;-66
2023/08/31 06:27:43;;;;;;;12.02;11.52;;;;;;;;;;5083664;28;20028;-65
2023/08/31 06:30:11;;;;;;;12.27;11.77;;;;;;;;;;5081140;28;20490;-65
2023/08/31 06:32:37;;;;;;;12.48;11.90;;;;;;;;;;5081765;28;20032;-65
2023/08/31 06:35:02;;;;;;;11.90;11.40;;;;;;;;;;5082300;28;20012;-66
2023/08/31 06:37:27;;;;;;;12.05;11.55;;;;;;;;;;5073767;28;20355;-69
2023/08/31 06:39:53;;;;;;;12.23;11.73;;;;;;;;;;5079124;28;20043;-66
2023/08/31 06:42:18;;;;;;;12.27;11.77;;;;;;;;;;5079293;28;20043;-66
2023/08/31 06:44:43;;;;;;;12.03;11.53;;;;;;;;;;5081692;28;20131;-67
2023/08/31 06:47:09;;;;;;;12.40;11.87;;;;;;;;;;5081778;28;20028;-66
2023/08/31 06:49:35;;;;;;;12.00;11.50;;;;;;;;;;5081219;28;20272;-65
2023/08/31 06:52:02;;;;;;;11.90;11.40;;;;;;;;;;5079845;28;20028;-66
2023/08/31 06:54:27;;;;;;;12.23;11.73;;;;;;;;;;5078068;28;20108;-66
2023/08/31 06:56:53;;;;;;;12.17;11.67;;;;;;;;;;5079506;28;20108;-65
2023/08/31 06:59:18;;;;;;;12.27;11.77;;;;;;;;;;5079346;28;20488;-67
2023/08/31 07:01:43;;;;;;;11.97;11.47;;;;;;;;;;5082583;28;20062;-66
2023/08/31 07:04:09;;;;;;;12.27;11.77;;;;;;;;;;5079308;28;20293;-65
2023/08/31 07:06:35;;;;;;;11.77;11.27;;;;;;;;;;5083837;28;20028;-65
2023/08/31 07:09:00;;;;;;;11.95;11.45;;;;;;;;;;5078205;28;20023;-65
2023/08/31 07:11:26;;;;;;;12.05;11.55;;;;;;;;;;5079951;28;20024;-65
2023/08/31 07:13:52;;;;;;;12.15;11.65;;;;;;;;;;5077294;28;20048;-70
2023/08/31 07:16:18;;;;;;;11.90;11.40;;;;;;;;;;5079887;28;20570;-65
2023/08/31 07:18:43;;;;;;;11.87;11.37;;;;;;;;;;5076018;28;20107;-66
2023/08/31 07:21:08;;;;;;;11.90;11.40;;;;;;;;;;5081051;28;20116;-64
2023/08/31 07:23:34;;;;;;;11.87;11.37;;;;;;;;;;5077632;28;20272;-64
2023/08/31 07:26:00;;;;;;;11.98;11.48;;;;;;;;;;5076978;28;20491;-63
2023/08/31 07:28:25;;;;;;;12.15;11.65;;;;;;;;;;5075264;28;20040;-64
2023/08/31 07:31:00;;;;;;;12.07;11.57;;;;;;;;;;5080696;28;20024;-65
2023/08/31 07:33:25;;;;;;;11.73;11.23;;;;;;;;;;5079877;28;20028;-64
2023/08/31 07:35:50;;;;;;;11.83;11.33;;;;;;;;;;5082729;28;20077;-65
2023/08/31 07:38:16;;;;;;;12.00;11.50;;;;;;;;;;5079160;28;20020;-66
2023/08/31 07:40:41;;;;;;;12.23;11.73;;;;;;;;;;5081412;28;20260;-63
2023/08/31 07:43:07;;;;;;;12.13;11.63;;;;;;;;;;5079602;28;20519;-65
2023/08/31 07:45:32;;;;;;;12.15;11.65;;;;;;;;;;5079559;28;20084;-65
2023/08/31 07:47:57;;;;;;;12.10;11.60;;;;;;;;;;5079653;28;20032;-64
2023/08/31 07:50:23;;;;;;;12.33;11.83;;;;;;;;;;5078847;28;20285;-63
2023/08/31 07:52:48;;;;;;;12.13;11.63;;;;;;;;;;5079503;28;20447;-66
2023/08/31 07:55:13;;;;;;;12.10;11.60;;;;;;;;;;5078758;28;20833;-64
2023/08/31 07:57:39;;;;;;;12.15;11.65;;;;;;;;;;5078132;28;20284;-65
2023/08/31 08:00:04;;;;;;;12.30;11.80;;;;;;;;;;5076977;28;20035;-66
2023/08/31 08:02:30;;;;;;;12.07;11.57;;;;;;;;;;5078442;28;20269;-63
2023/08/31 08:04:55;;;;;;;11.93;11.43;;;;;;;;;;5078428;28;20036;-64
2023/08/31 08:07:20;;;;;;;11.77;11.27;;;;;;;;;;5075571;28;20329;-64
2023/08/31 08:09:45;;;;;;;12.03;11.53;;;;;;;;;;5080574;28;20024;-64
2023/08/31 08:12:11;;;;;;;12.17;11.67;;;;;;;;;;5074317;28;20020;-65
2023/08/31 08:14:36;;;;;;;11.97;11.47;;;;;;;;;;5080833;28;20019;-64
2023/08/31 08:17:01;;;;;;;11.73;11.23;;;;;;;;;;5075790;28;20031;-63
2023/08/31 08:19:27;;;;;;;12.10;11.60;;;;;;;;;;5073724;28;20028;-64
2023/08/31 08:21:52;;;;;;;12.13;11.63;;;;;;;;;;5078609;28;20441;-64
2023/08/31 08:24:17;;;;;;;11.90;11.40;;;;;;;;;;5078442;28;20774;-65
2023/08/31 08:26:43;;;;;;;12.20;11.70;;;;;;;;;;5076667;28;20284;-65
2023/08/31 08:29:08;;;;;;;12.32;11.82;;;;;;;;;;5079425;28;20031;-67
2023/08/31 08:31:33;;;;;;;12.18;11.68;;;;;;;;;;5076752;28;20023;-64
2023/08/31 08:34:00;;;;;;;12.50;11.90;;;;;;;;;;5076865;28;20047;-64
2023/08/31 08:36:25;;;;;;;12.65;12.05;;;;;;;;;;5075637;28;20375;-64
2023/08/31 08:38:50;;;;;;;12.45;11.90;;;;;;;;;;5081095;28;20031;-64
2023/08/31 08:41:19;;;;;;;12.23;11.73;;;;;;;;;;5078650;28;20031;-63
2023/08/31 08:43:46;;;;;;;12.57;11.98;;;;;;;;;;5079986;28;20012;-64
2023/08/31 08:46:12;;;;;;;12.48;11.90;;;;;;;;;;5078050;28;20039;-65
2023/08/31 08:48:37;;;;;;;12.00;11.50;;;;;;;;;;5076349;28;20032;-65
2023/08/31 08:51:03;;;;;;;12.55;11.95;;;;;;;;;;5078861;28;20446;-65
2023/08/31 08:53:29;;;;;;;12.40;11.90;;;;;;;;;;5079353;28;20466;-63
2023/08/31 08:55:54;;;;;;;12.15;11.65;;;;;;;;;;5078252;28;20032;-64
2023/08/31 08:58:19;;;;;;;12.18;11.68;;;;;;;;;;5077907;28;20024;-64
2023/08/31 09:00:46;;;;;;;12.13;11.63;;;;;;;;;;5084090;28;20031;-64
2023/08/31 09:03:11;;;;;;;12.82;12.23;;;;;;;;;;5074487;28;20288;-63
2023/08/31 09:05:36;;;;;;;12.30;11.80;;;;;;;;;;5077353;28;20024;-64
2023/08/31 09:08:07;;;;;;;12.27;11.77;;;;;;;;;;5078257;28;20035;-65
2023/08/31 09:10:35;;;;;;;12.48;11.90;;;;;;;;;;5086545;28;21789;-62
2023/08/31 09:13:01;;;;;;;12.18;11.68;;;;;;;;;;5085646;28;20017;-64
2023/08/31 09:15:35;;;;;;;12.85;12.25;;;;;;;;;;5084195;28;20075;-64
2023/08/31 09:18:00;;;;;;;12.10;11.60;;;;;;;;;;5080611;28;20028;-66
2023/08/31 09:20:25;;;;;;;12.30;11.80;;;;;;;;;;5082115;28;20024;-64
2023/08/31 09:22:55;;;;;;;12.00;11.50;;;;;;;;;;5082516;28;20674;-64
2023/08/31 09:25:20;;;;;;;12.07;11.57;;;;;;;;;;5085020;28;20264;-62
2023/08/31 09:27:47;;;;;;;12.57;11.98;;;;;;;;;;5080195;28;20038;-65
2023/08/31 09:30:13;;;;;;;11.90;11.40;;;;;;;;;;5077954;28;20082;-65
2023/08/31 09:32:38;;;;;;;12.15;11.65;;;;;;;;;;5085097;28;20055;-64
2023/08/31 09:35:08;;;;;;;12.73;12.13;;;;;;;;;;5083581;28;20112;-64
2023/08/31 09:37:33;;;;;;;12.27;11.77;;;;;;;;;;5082981;28;20040;-64
2023/08/31 09:40:02;;;;;;;11.90;11.40;;;;;;;;;;5085431;28;20023;-65
2023/08/31 09:42:38;;;;;;;12.50;11.90;;;;;;;;;;5080094;28;20655;-64
2023/08/31 09:45:03;;;;;;;11.90;11.40;;;;;;;;;;5082579;28;20058;-65
2023/08/31 09:47:29;;;;;;;11.90;11.40;;;;;;;;;;5081692;28;20892;-64
2023/08/31 09:49:54;;;;;;;11.97;11.47;;;;;;;;;;5082569;28;20028;-65
2023/08/31 09:52:20;;;;;;;12.20;11.70;;;;;;;;;;5080729;28;20334;-65
2023/08/31 09:54:46;;;;;;;12.13;11.63;;;;;;;;;;5080363;28;20035;-64
2023/08/31 09:57:12;;;;;;;12.18;11.68;;;;;;;;;;5086477;28;20157;-66
2023/08/31 09:59:38;;;;;;;11.98;11.48;;;;;;;;;;5086617;28;20531;-65
2023/08/31 10:02:04;;;;;;;12.05;11.55;;;;;;;;;;5084026;28;20031;-66
2023/08/31 10:04:30;;;;;;;12.23;11.73;;;;;;;;;;5085002;28;20052;-68
2023/08/31 10:06:56;;;;;;;12.20;11.70;;;;;;;;;;5082006;28;20048;-68
2023/08/31 10:09:21;;;;;;;11.68;11.18;;;;;;;;;;5083968;28;20254;-65
2023/08/31 10:11:47;;;;;;;11.85;11.35;;;;;;;;;;5082639;28;20012;-66
2023/08/31 10:14:13;;;;;;;11.88;11.38;;;;;;;;;;5083916;28;20107;-64
2023/08/31 10:16:44;;;;;;;11.77;11.27;;;;;;;;;;5079383;28;20176;-66
2023/08/31 10:19:09;;;;;;;11.30;10.80;;;;;;;;;;5081778;28;20024;-65
2023/08/31 10:21:35;;;;;;;11.93;11.43;;;;;;;;;;5077840;28;20019;-67
2023/08/31 10:24:00;;;;;;;11.93;11.43;;;;;;;;;;5078540;28;20072;-67
2023/08/31 10:26:26;;;;;;;11.93;11.43;;;;;;;;;;5084424;28;20027;-67
2023/08/31 10:28:52;;;;;;;11.68;11.18;;;;;;;;;;5082386;28;20028;-64
2023/08/31 10:31:18;;;;;;;12.52;11.93;;;;;;;;;;5078241;28;20498;-67
2023/08/31 10:33:43;;;;;;;12.43;11.88;;;;;;;;;;5080083;28;20032;-66
2023/08/31 10:36:11;;;;;;;12.10;11.60;;;;;;;;;;5076592;28;20499;-66
2023/08/31 10:38:37;;;;;;;11.93;11.43;;;;;;;;;;5080401;28;20032;-66
2023/08/31 10:41:05;;;;;;;12.23;11.73;;;;;;;;;;5081096;28;20039;-66
2023/08/31 10:43:44;;;;;;;12.02;11.52;;;;;;;;;;5077500;28;20157;-67
2023/08/31 10:46:16;;;;;;;12.30;11.77;;;;;;;;;;5074281;28;20030;-63
2023/08/31 10:48:56;;;;;;;12.45;11.90;;;;;;;;;;5079254;28;20078;-63
2023/08/31 10:51:22;;;;;;;12.60;12.00;;;;;;;;;;5076471;28;20028;-64
2023/08/31 10:53:47;;;;;;;11.57;11.07;;;;;;;;;;5078764;28;20288;-64
2023/08/31 10:56:15;;;;;;;12.20;11.70;;;;;;;;;;5080713;28;20039;-64
2023/08/31 10:58:40;;;;;;;11.95;11.45;;;;;;;;;;5071387;28;20054;-67
2023/08/31 11:01:06;;;;;;;11.83;11.33;;;;;;;;;;5080215;28;20144;-67
2023/08/31 11:03:31;;;;;;;11.60;11.10;;;;;;;;;;5076874;28;20288;-67
2023/08/31 11:05:57;;;;;;;11.73;11.23;;;;;;;;;;5080732;28;20050;-66
2023/08/31 11:08:26;;;;;;;11.75;11.25;;;;;;;;;;5075670;28;20028;-66
2023/08/31 11:10:51;;;;;;;12.00;11.50;;;;;;;;;;5077170;28;20024;-63
2023/08/31 11:13:18;;;;;;;11.68;11.18;;;;;;;;;;5077579;28;20020;-64
2023/08/31 11:15:47;;;;;;;11.55;11.05;;;;;;;;;;5081444;28;20091;-64
2023/08/31 11:18:12;;;;;;;12.00;11.50;;;;;;;;;;5080238;28;20067;-65
2023/08/31 11:20:37;;;;;;;12.48;11.90;;;;;;;;;;5078738;28;20016;-63
2023/08/31 11:23:03;;;;;;;12.10;11.60;;;;;;;;;;5079534;28;20172;-64
2023/08/31 11:25:31;;;;;;;11.77;11.27;;;;;;;;;;5075554;28;20166;-64
2023/08/31 11:27:57;;;;;;;12.20;11.70;;;;;;;;;;5078387;28;20032;-64
2023/08/31 11:30:22;;;;;;;12.23;11.73;;;;;;;;;;5078765;28;20027;-64
2023/08/31 11:32:49;;;;;;;11.95;11.45;;;;;;;;;;5073100;28;20036;-63
2023/08/31 11:35:16;;;;;;;12.30;11.80;;;;;;;;;;5077958;28;20024;-64
2023/08/31 11:37:41;;;;;;;11.88;11.38;;;;;;;;;;5077824;28;20098;-62
2023/08/31 11:40:08;;;;;;;11.70;11.20;;;;;;;;;;5076743;28;20020;-62
2023/08/31 11:42:33;;;;;;;12.10;11.60;;;;;;;;;;5079304;28;20500;-61
2023/08/31 11:44:59;;;;;;;12.20;11.70;;;;;;;;;;5074744;28;20088;-61
2023/08/31 11:47:24;;;;;;;12.05;11.55;;;;;;;;;;5085262;28;20032;-61
2023/08/31 11:49:50;;;;;;;12.15;11.65;;;;;;;;;;5080411;28;20027;-63
2023/08/31 11:52:16;;;;;;;11.75;11.25;;;;;;;;;;5077689;28;20170;-64
2023/08/31 11:54:42;;;;;;;11.90;11.40;;;;;;;;;;5075967;28;20031;-63
2023/08/31 11:57:10;;;;;;;12.20;11.70;;;;;;;;;;5080487;28;20103;-64
2023/08/31 11:59:36;;;;;;;11.60;11.10;;;;;;;;;;5077278;28;20103;-63
2023/08/31 12:02:05;;;;;;;12.10;11.60;;;;;;;;;;5072925;28;20031;-63
2023/08/31 12:04:30;;;;;;;11.88;11.38;;;;;;;;;;5076951;28;20090;-63
2023/08/31 12:07:00;;;;;;;11.77;11.27;;;;;;;;;;5079234;28;20066;-62
2023/08/31 12:09:27;;;;;;;12.32;11.80;;;;;;;;;;5077225;28;20253;-63
2023/08/31 12:11:52;;;;;;;11.88;11.38;;;;;;;;;;5075044;28;20021;-62
2023/08/31 12:14:19;;;;;;;12.10;11.60;;;;;;;;;;5079155;28;20028;-63
2023/08/31 12:16:44;;;;;;;11.55;11.05;;;;;;;;;;5080250;28;20809;-64
2023/08/31 12:19:09;;;;;;;11.68;11.18;;;;;;;;;;5077940;28;20020;-62
2023/08/31 12:21:35;;;;;;;12.15;11.65;;;;;;;;;;5079375;28;20023;-61
2023/08/31 12:24:00;;;;;;;12.10;11.60;;;;;;;;;;5075185;28;20593;-62
2023/08/31 12:26:26;;;;;;;12.10;11.60;;;;;;;;;;5080159;28;20028;-62
2023/08/31 12:28:51;;;;;;;12.25;11.75;;;;;;;;;;5079591;28;20502;-64
2023/08/31 12:31:16;;;;;;;11.80;11.30;;;;;;;;;;5076685;28;20028;-59
2023/08/31 12:33:42;;;;;;;11.68;11.18;;;;;;;;;;5078520;28;20268;-62
2023/08/31 12:36:07;;;;;;;11.90;11.40;;;;;;;;;;5076099;28;20395;-61
2023/08/31 12:38:33;;;;;;;11.93;11.43;;;;;;;;;;5076084;28;20020;-61
2023/08/31 12:40:58;;;;;;;11.70;11.20;;;;;;;;;;5074071;28;20040;-63
2023/08/31 12:43:24;;;;;;;12.00;11.50;;;;;;;;;;5078461;28;20031;-62
2023/08/31 12:45:49;;;;;;;11.60;11.10;;;;;;;;;;5075616;28;20387;-63
2023/08/31 12:48:14;;;;;;;11.53;11.03;;;;;;;;;;5078333;28;20105;-62
2023/08/31 12:50:40;;;;;;;11.68;11.18;;;;;;;;;;5074537;28;20268;-66
2023/08/31 12:53:05;;;;;;;12.18;11.68;;;;;;;;;;5074497;28;20030;-64
2023/08/31 12:55:30;;;;;;;11.80;11.30;;;;;;;;;;5077546;28;20754;-62
2023/08/31 12:57:56;;;;;;;12.10;11.60;;;;;;;;;;5077147;28;20024;-62
2023/08/31 13:00:21;;;;;;;12.60;12.00;;;;;;;;;;5075553;28;20028;-64
2023/08/31 13:02:47;;;;;;;11.60;11.10;;;;;;;;;;5076202;28;20051;-63
2023/08/31 13:05:12;;;;;;;12.30;11.80;;;;;;;;;;5075768;28;20020;-64
2023/08/31 13:07:38;;;;;;;11.50;11.00;;;;;;;;;;5078419;28;20439;-64
2023/08/31 13:10:04;;;;;;;11.50;11.00;;;;;;;;;;5075941;28;20062;-63
2023/08/31 13:12:32;;;;;;;11.98;11.48;;;;;;;;;;5080249;28;20475;-64
2023/08/31 13:14:58;;;;;;;12.00;11.50;;;;;;;;;;5078671;28;20024;-62
2023/08/31 13:17:26;;;;;;;11.80;11.30;;;;;;;;;;5075930;28;20024;-65
2023/08/31 13:19:52;;;;;;;11.70;11.20;;;;;;;;;;5073957;28;20043;-62
2023/08/31 13:22:17;;;;;;;11.85;11.35;;;;;;;;;;5066862;28;20021;-62
2023/08/31 13:24:43;;;;;;;12.43;11.85;;;;;;;;;;5074664;28;20051;-62
2023/08/31 13:27:08;;;;;;;11.70;11.20;;;;;;;;;;5077153;28;20411;-63
2023/08/31 13:29:33;;;;;;;12.10;11.60;;;;;;;;;;5075148;28;20028;-63
2023/08/31 13:31:58;;;;;;;11.63;11.13;;;;;;;;;;5080762;28;20085;-61
2023/08/31 13:34:24;;;;;;;11.90;11.40;;;;;;;;;;5078157;28;20024;-62
2023/08/31 13:36:49;;;;;;;11.50;11.00;;;;;;;;;;5068985;28;20021;-63
2023/08/31 13:39:14;;;;;;;11.50;11.00;;;;;;;;;;5075804;28;20039;-62
2023/08/31 13:41:40;;;;;;;11.48;10.98;;;;;;;;;;5079852;28;20261;-63
2023/08/31 13:44:05;;;;;;;11.57;11.07;;;;;;;;;;5076398;28;20119;-63
2023/08/31 13:46:31;;;;;;;11.80;11.30;;;;;;;;;;5082867;28;20027;-63
2023/08/31 13:48:56;;;;;;;11.82;11.32;;;;;;;;;;5080629;28;20062;-62
2023/08/31 13:51:22;;;;;;;12.05;11.55;;;;;;;;;;5072317;28;20016;-62
2023/08/31 13:53:47;;;;;;;11.75;11.25;;;;;;;;;;5072876;28;20029;-65
2023/08/31 13:56:13;;;;;;;11.82;11.32;;;;;;;;;;5078972;28;20025;-63
2023/08/31 13:58:38;;;;;;;11.70;11.20;;;;;;;;;;5080701;28;20028;-63
2023/08/31 14:01:03;;;;;;;11.50;11.00;;;;;;;;;;5080737;28;20032;-63
2023/08/31 14:03:29;;;;;;;11.77;11.27;;;;;;;;;;5080331;28;20135;-63
2023/08/31 14:05:54;;;;;;;11.75;11.25;;;;;;;;;;5081312;28;20036;-63
2023/08/31 14:08:20;;;;;;;12.00;11.50;;;;;;;;;;5081306;28;20103;-63